首页
METAR-TAF:

METAR-TAF

机场 :

McCook, 內布拉斯加州, 美国

纬度: 40-12-11N, 经度: 100-35-18W, 海拔: 786米

当前天气观测

该预报发布于47分钟前的09:53 UTC
风速7节,风向
温度
气压 1021 hPa
能見度: 16.1公里
阴天层高于9000英尺

METAR: KMCK 190953Z AUTO 10007KT 10SM OVC090 A3016 RMK AO2 RAB0856E12 SLPNO P0000 $

时间: 05:40 (10:40 UTC)

预报

该预报发布于5小时和20分钟前的05:20 UTC
预报有效从19日的 06点(UTC)到 20日的 06点(UTC)
风速13节,风向东转东北
能見度: 10公里
阴天层高于6000英尺
从 19日的 0800点(UTC)
风速13节,风向东转东北,有时为18节阵风
能見度: 10公里
散云层高于2500英尺
多云层高于5000英尺, 积雨云.
小阵雨, 附近有雷暴
从 19日的 1200点(UTC)
风速13节,风向,有时为22节阵风
能見度: 10公里
阴天层高于3500英尺
从 19日的 1500点(UTC)
风速13节,风向,有时为22节阵风
能見度: 10公里
阴天层高于1500英尺
从 19日的 1800点(UTC)
风速13节,风向
能見度: 10公里
阴天层高于900英尺
从 19日的 2100点(UTC)
风速13节,风向
能見度: 8.0公里
阴天层高于500英尺, 积雨云.
小阵雨, 附近有雷暴
从 20日的 0000点(UTC)
风速12节,风向
能見度: 10公里
阴天层高于500英尺
附近有阵雨,

TAF: KMCK 190520Z 1906/2006 06013KT P6SM OVC060 FM190800 07013G18KT P6SM -SHRA VCTS SCT025 BKN050CB FM191200 08013G22KT P6SM OVC035 FM191500 08013G22KT P6SM OVC015 FM191800 08013KT P6SM OVC009 FM192100 09013KT 5SM -SHRA VCTS OVC005CB FM200000 09012KT P6SM VCSH OVC005

超过4000个机场的气象观测和天气预报(METAR&TAF报告)。

可查询的气象台以黄色和红色小点在地图上表示。

将鼠标移到小点上方,可查看气象台名称。

然后点击查看天气观测和预报。

如需切换地图:点击带黑十字的绿色按钮放大地图;点击带横线的绿色按钮缩小地图;或者点击绿色箭头查看邻近地区的地图。


METAR-TAF: